createdAt,value
2017-11-29T00:00:24.970Z,0
2017-11-29T00:01:26.573Z,0
2017-11-29T00:02:28.171Z,0
2017-11-29T00:03:29.781Z,0
2017-11-29T00:04:31.378Z,0
2017-11-29T00:05:32.986Z,0
2017-11-29T00:06:34.582Z,0
2017-11-29T00:07:36.196Z,0
2017-11-29T00:08:37.786Z,0
2017-11-29T00:09:39.398Z,0
2017-11-29T00:10:40.993Z,0
2017-11-29T00:11:42.606Z,0
2017-11-29T00:12:44.201Z,0
2017-11-29T00:13:45.805Z,0
2017-11-29T00:14:47.408Z,0
2017-11-29T00:15:49.011Z,0
2017-11-29T00:16:50.615Z,0
2017-11-29T00:17:52.219Z,0
2017-11-29T00:18:53.819Z,0
2017-11-29T00:19:55.423Z,0
2017-11-29T00:20:57.026Z,0
2017-11-29T00:21:58.624Z,0
2017-11-29T00:23:00.229Z,0
2017-11-29T00:24:01.827Z,0
2017-11-29T00:25:03.436Z,0
2017-11-29T00:26:05.031Z,0
2017-11-29T00:27:06.639Z,0
2017-11-29T00:28:08.235Z,0
2017-11-29T00:29:10.180Z,0
2017-11-29T00:30:11.784Z,0
2017-11-29T00:31:13.382Z,0
2017-11-29T00:32:14.990Z,0
2017-11-29T00:33:16.590Z,0
2017-11-29T00:34:18.191Z,0
2017-11-29T00:35:19.790Z,0
2017-11-29T00:36:21.394Z,0
2017-11-29T00:37:22.991Z,0
2017-11-29T00:38:24.593Z,0
2017-11-29T00:39:26.197Z,0
2017-11-29T00:40:27.802Z,0
2017-11-29T00:41:29.401Z,0
2017-11-29T00:42:31.000Z,0
2017-11-29T00:43:32.604Z,0
2017-11-29T00:44:34.212Z,0
2017-11-29T00:45:35.811Z,0
2017-11-29T00:46:37.415Z,0
2017-11-29T00:47:39.014Z,0
2017-11-29T00:48:40.618Z,0
2017-11-29T00:49:42.221Z,0
2017-11-29T00:50:43.820Z,0
2017-11-29T00:51:45.425Z,0
2017-11-29T00:52:47.017Z,0
2017-11-29T00:53:48.624Z,0
2017-11-29T00:54:50.230Z,0
2017-11-29T00:55:51.829Z,0
2017-11-29T00:56:53.428Z,0
2017-11-29T00:57:55.040Z,0
2017-11-29T00:58:56.635Z,0
2017-11-29T00:59:59.528Z,0
2017-11-29T01:01:01.105Z,0
2017-11-29T01:02:02.707Z,0
2017-11-29T01:03:04.305Z,0
2017-11-29T01:04:05.902Z,0
2017-11-29T01:05:07.504Z,0
2017-11-29T01:06:09.111Z,0
2017-11-29T01:07:10.709Z,0
2017-11-29T01:08:12.316Z,0
2017-11-29T01:09:13.923Z,0
2017-11-29T01:10:15.525Z,0
2017-11-29T01:11:17.171Z,0
2017-11-29T01:12:19.038Z,0
2017-11-29T01:13:23.471Z,0
2017-11-29T01:14:27.680Z,0
2017-11-29T01:15:34.082Z,0
2017-11-29T01:16:40.874Z,0
2017-11-29T01:17:48.295Z,0
2017-11-29T01:18:54.963Z,0
2017-11-29T01:20:01.029Z,0
2017-11-29T01:21:04.323Z,0
2017-11-29T01:22:09.980Z,0
2017-11-29T01:23:11.599Z,0
2017-11-29T01:24:13.495Z,0
2017-11-29T01:25:15.345Z,0
2017-11-29T01:26:18.080Z,0
2017-11-29T01:27:19.676Z,0
2017-11-29T01:28:21.287Z,0
2017-11-29T01:29:24.562Z,0
2017-11-29T01:30:27.991Z,0
2017-11-29T01:31:29.747Z,0
2017-11-29T01:32:31.508Z,0
2017-11-29T01:33:33.744Z,0
2017-11-29T01:34:36.648Z,0
2017-11-29T01:35:38.247Z,0
2017-11-29T01:36:40.685Z,0
2017-11-29T01:37:42.626Z,0
2017-11-29T01:38:44.228Z,0
2017-11-29T01:39:45.839Z,0
2017-11-29T01:40:47.453Z,0
2017-11-29T01:41:49.080Z,0
2017-11-29T01:42:50.733Z,0
2017-11-29T01:43:52.675Z,0
2017-11-29T01:44:55.477Z,0
2017-11-29T01:45:57.078Z,0
2017-11-29T01:46:58.687Z,0
2017-11-29T01:48:02.206Z,0
2017-11-29T01:49:04.778Z,0
2017-11-29T01:50:07.673Z,0
2017-11-29T01:51:09.293Z,0
2017-11-29T01:52:11.202Z,0
2017-11-29T01:53:13.088Z,0
2017-11-29T01:54:14.728Z,0
2017-11-29T01:55:16.333Z,0
2017-11-29T01:56:17.935Z,0
2017-11-29T01:57:20.050Z,0
2017-11-29T01:58:22.659Z,0
2017-11-29T01:59:24.893Z,0
2017-11-29T02:00:27.843Z,0
2017-11-29T02:01:30.806Z,0
2017-11-29T02:02:33.049Z,0
2017-11-29T02:03:34.658Z,0
2017-11-29T02:04:36.259Z,0
2017-11-29T02:05:39.069Z,0
2017-11-29T02:06:40.848Z,0
2017-11-29T02:07:43.458Z,0
2017-11-29T02:08:45.294Z,0
2017-11-29T02:09:46.901Z,0
2017-11-29T02:10:48.505Z,0
2017-11-29T02:11:50.105Z,0
2017-11-29T02:12:51.954Z,0
2017-11-29T02:13:53.574Z,0
2017-11-29T02:14:56.148Z,0
2017-11-29T02:15:58.635Z,0
2017-11-29T02:17:00.262Z,0
2017-11-29T02:18:02.418Z,0
2017-11-29T02:19:03.994Z,0
2017-11-29T02:20:05.597Z,0
2017-11-29T02:21:07.264Z,0
2017-11-29T02:22:09.452Z,0
2017-11-29T02:23:11.093Z,0
2017-11-29T02:24:13.166Z,0
2017-11-29T02:25:16.677Z,0
2017-11-29T02:26:18.880Z,0
2017-11-29T02:27:21.419Z,0
2017-11-29T02:28:23.027Z,0
2017-11-29T02:29:25.028Z,0
2017-11-29T02:30:26.865Z,0
2017-11-29T02:31:28.479Z,0
2017-11-29T02:32:30.060Z,0
2017-11-29T02:33:32.600Z,0
2017-11-29T02:34:34.764Z,0
2017-11-29T02:35:37.592Z,0
2017-11-29T02:36:39.191Z,0
2017-11-29T02:37:40.931Z,0
2017-11-29T02:38:42.540Z,0
2017-11-29T02:39:44.138Z,0
2017-11-29T02:40:45.736Z,0
2017-11-29T02:41:47.335Z,0
2017-11-29T02:42:48.950Z,0
2017-11-29T02:43:50.549Z,0
2017-11-29T02:44:52.153Z,0
2017-11-29T02:45:53.754Z,0
2017-11-29T02:46:55.357Z,0
2017-11-29T02:47:56.958Z,0
2017-11-29T02:48:58.559Z,0
2017-11-29T02:50:00.161Z,0
2017-11-29T02:51:01.761Z,0
2017-11-29T02:52:03.370Z,0
2017-11-29T02:53:04.963Z,0
2017-11-29T02:54:06.569Z,0
2017-11-29T02:55:08.177Z,0
2017-11-29T02:56:09.772Z,0
2017-11-29T02:57:11.373Z,0
2017-11-29T02:58:12.975Z,0
2017-11-29T02:59:14.579Z,0
2017-11-29T03:00:16.177Z,0
2017-11-29T03:01:17.782Z,0
2017-11-29T03:02:19.380Z,0
2017-11-29T03:03:20.986Z,0
2017-11-29T03:04:22.590Z,0
2017-11-29T03:05:24.193Z,0
2017-11-29T03:06:25.794Z,0
2017-11-29T03:07:27.402Z,0
2017-11-29T03:08:28.998Z,0
2017-11-29T03:09:30.603Z,0
2017-11-29T03:10:32.201Z,0
2017-11-29T03:11:33.808Z,0
2017-11-29T03:12:35.408Z,0
2017-11-29T03:13:37.014Z,0
2017-11-29T03:14:38.613Z,0
2017-11-29T03:15:40.212Z,0
2017-11-29T03:16:41.817Z,0
2017-11-29T03:17:43.414Z,0
2017-11-29T03:18:45.019Z,0
2017-11-29T03:19:46.623Z,0
2017-11-29T03:20:48.230Z,0
2017-11-29T03:21:49.832Z,0
2017-11-29T03:22:51.431Z,0
2017-11-29T03:23:53.033Z,0
2017-11-29T03:24:54.641Z,0
2017-11-29T03:25:56.238Z,0
2017-11-29T03:26:57.841Z,0
2017-11-29T03:27:59.449Z,0
2017-11-29T03:29:01.054Z,0
2017-11-29T03:30:02.652Z,0
2017-11-29T03:31:04.255Z,0
2017-11-29T03:32:05.859Z,0
2017-11-29T03:33:07.464Z,0
2017-11-29T03:34:09.069Z,0
2017-11-29T03:35:10.670Z,0
2017-11-29T03:36:12.272Z,0
2017-11-29T03:37:13.874Z,0
2017-11-29T03:38:15.481Z,0
2017-11-29T03:39:17.086Z,0
2017-11-29T03:40:18.683Z,0
2017-11-29T03:41:20.285Z,0
2017-11-29T03:42:21.903Z,0
2017-11-29T03:43:23.499Z,0
2017-11-29T03:44:25.101Z,0
2017-11-29T03:45:26.696Z,0
2017-11-29T03:46:28.303Z,0
2017-11-29T03:47:29.909Z,0
2017-11-29T03:48:31.514Z,0
2017-11-29T03:49:33.120Z,0
2017-11-29T03:50:34.721Z,0
2017-11-29T03:51:36.324Z,0
2017-11-29T03:52:37.925Z,0
2017-11-29T03:53:39.530Z,0
2017-11-29T03:54:41.133Z,0
2017-11-29T03:55:42.733Z,0
2017-11-29T03:56:44.340Z,0
2017-11-29T03:57:45.944Z,0
2017-11-29T03:58:47.541Z,0
2017-11-29T03:59:49.143Z,0
2017-11-29T04:00:50.762Z,0
2017-11-29T04:01:52.365Z,0
2017-11-29T04:02:53.962Z,0
2017-11-29T04:03:55.572Z,0
2017-11-29T04:04:57.168Z,0
2017-11-29T04:05:58.767Z,0
2017-11-29T04:07:00.377Z,0
2017-11-29T04:08:01.972Z,0
2017-11-29T04:09:03.576Z,0
2017-11-29T04:10:05.179Z,0
2017-11-29T04:11:06.781Z,0
2017-11-29T04:12:08.387Z,0
2017-11-29T04:13:09.985Z,0
2017-11-29T04:14:11.586Z,0
2017-11-29T04:15:13.188Z,0
2017-11-29T04:16:14.798Z,0
2017-11-29T04:17:16.392Z,0
2017-11-29T04:18:17.998Z,0
2017-11-29T04:19:19.604Z,0
2017-11-29T04:20:21.194Z,0
2017-11-29T04:21:22.795Z,0
2017-11-29T04:22:24.402Z,0
2017-11-29T04:23:26.022Z,0
2017-11-29T04:24:27.602Z,0
2017-11-29T04:25:29.211Z,0
2017-11-29T04:26:30.814Z,0
2017-11-29T04:27:32.419Z,0
2017-11-29T04:28:34.016Z,0
2017-11-29T04:29:35.623Z,0
2017-11-29T04:30:37.223Z,0
2017-11-29T04:31:38.840Z,0
2017-11-29T04:32:40.432Z,0
2017-11-29T04:33:42.041Z,0
2017-11-29T04:34:43.634Z,0
2017-11-29T04:35:45.250Z,0
2017-11-29T04:36:46.851Z,0
2017-11-29T04:37:48.450Z,0
2017-11-29T04:38:50.063Z,0
2017-11-29T04:39:51.657Z,0
2017-11-29T04:40:53.261Z,0
2017-11-29T04:41:54.859Z,0
2017-11-29T04:42:56.464Z,0
2017-11-29T04:43:58.065Z,0
2017-11-29T04:44:59.668Z,0
2017-11-29T04:46:01.276Z,0
2017-11-29T04:47:02.880Z,0
2017-11-29T04:48:04.483Z,0
2017-11-29T04:49:06.084Z,0
2017-11-29T04:50:07.689Z,0
2017-11-29T04:51:09.291Z,0
2017-11-29T04:52:10.892Z,0
2017-11-29T04:53:12.497Z,0
2017-11-29T04:54:14.101Z,0
2017-11-29T04:55:15.697Z,0
2017-11-29T04:56:17.302Z,0
2017-11-29T04:57:18.903Z,0
2017-11-29T04:58:20.512Z,0
2017-11-29T04:59:22.110Z,0
2017-11-29T05:00:23.718Z,0
2017-11-29T05:01:25.325Z,0
2017-11-29T05:02:26.926Z,0
2017-11-29T05:03:28.528Z,0
2017-11-29T05:04:30.130Z,0
2017-11-29T05:05:31.731Z,0
2017-11-29T05:06:33.331Z,0
2017-11-29T05:07:34.940Z,0
2017-11-29T05:08:36.541Z,0
2017-11-29T05:09:38.140Z,0
2017-11-29T05:10:39.745Z,0
2017-11-29T05:11:41.349Z,0
2017-11-29T05:12:42.949Z,0
2017-11-29T05:13:44.549Z,0
2017-11-29T05:14:46.158Z,0
2017-11-29T05:15:47.771Z,0
2017-11-29T05:16:49.361Z,0
2017-11-29T05:17:50.965Z,0
2017-11-29T05:18:52.565Z,0
2017-11-29T05:19:54.159Z,0
2017-11-29T05:20:55.771Z,0
2017-11-29T05:21:57.365Z,0
2017-11-29T05:22:58.974Z,0
2017-11-29T05:24:00.569Z,0
2017-11-29T05:25:02.175Z,0
2017-11-29T05:26:03.784Z,0
2017-11-29T05:27:05.376Z,0
2017-11-29T05:28:06.984Z,0
2017-11-29T05:29:08.581Z,0
2017-11-29T05:30:10.197Z,0
2017-11-29T05:31:11.785Z,0
2017-11-29T05:32:13.386Z,0
2017-11-29T05:33:14.990Z,0
2017-11-29T05:34:16.590Z,0
2017-11-29T05:35:18.198Z,0
2017-11-29T05:36:19.807Z,0
2017-11-29T05:37:21.407Z,0
2017-11-29T05:38:23.002Z,0
2017-11-29T05:39:24.612Z,0
2017-11-29T05:40:26.216Z,0
2017-11-29T05:41:27.815Z,0
2017-11-29T05:42:29.416Z,0
2017-11-29T05:43:31.022Z,0
2017-11-29T05:44:32.631Z,0
2017-11-29T05:45:34.223Z,0
2017-11-29T05:46:35.832Z,0
2017-11-29T05:47:37.428Z,0
2017-11-29T05:48:39.041Z,0
2017-11-29T05:49:40.637Z,0
2017-11-29T05:50:42.241Z,0
2017-11-29T05:51:43.845Z,0
2017-11-29T05:52:45.448Z,0
2017-11-29T05:53:47.045Z,0
2017-11-29T05:54:48.647Z,0
2017-11-29T05:55:50.251Z,0
2017-11-29T05:56:51.867Z,0
2017-11-29T05:57:53.456Z,0
2017-11-29T05:58:55.063Z,0
2017-11-29T05:59:56.660Z,0
2017-11-29T06:00:58.273Z,0
2017-11-29T06:01:59.868Z,0
2017-11-29T06:03:01.475Z,0
2017-11-29T06:04:03.073Z,0
2017-11-29T06:05:04.682Z,0
2017-11-29T06:06:06.280Z,0
2017-11-29T06:07:07.894Z,0
2017-11-29T06:08:09.501Z,0
2017-11-29T06:09:11.112Z,0
2017-11-29T06:10:12.711Z,0
2017-11-29T06:11:14.314Z,0
2017-11-29T06:12:15.927Z,0
2017-11-29T06:13:17.522Z,0
2017-11-29T06:14:19.121Z,0
2017-11-29T06:15:20.719Z,0
2017-11-29T06:16:22.324Z,0
2017-11-29T06:17:23.924Z,0
2017-11-29T06:18:25.530Z,0
2017-11-29T06:19:27.131Z,0
2017-11-29T06:20:28.739Z,0
2017-11-29T06:21:30.334Z,0
2017-11-29T06:22:31.943Z,0
2017-11-29T06:23:33.541Z,0
2017-11-29T06:24:35.148Z,0
2017-11-29T06:25:36.746Z,0
2017-11-29T06:26:38.441Z,0
2017-11-29T06:27:40.048Z,0
2017-11-29T06:28:41.648Z,0
2017-11-29T06:29:43.253Z,0
2017-11-29T06:30:44.864Z,0
2017-11-29T06:31:46.442Z,0
2017-11-29T06:32:48.047Z,0
2017-11-29T06:33:49.653Z,0
2017-11-29T06:34:51.254Z,0
2017-11-29T06:35:52.853Z,0
2017-11-29T06:36:54.470Z,0
2017-11-29T06:37:56.071Z,0
2017-11-29T06:38:57.671Z,0
2017-11-29T06:39:59.269Z,0
2017-11-29T06:41:00.878Z,0
2017-11-29T06:42:02.483Z,0
2017-11-29T06:43:04.080Z,0
2017-11-29T06:44:05.680Z,0
2017-11-29T06:45:07.285Z,0
2017-11-29T06:46:08.889Z,0
2017-11-29T06:47:10.489Z,0
2017-11-29T06:48:12.084Z,0
2017-11-29T06:49:13.692Z,0
2017-11-29T06:50:15.317Z,0
2017-11-29T06:51:16.924Z,0
2017-11-29T06:52:18.530Z,0
2017-11-29T06:53:20.140Z,0
2017-11-29T06:54:21.742Z,0
2017-11-29T06:55:23.341Z,0
2017-11-29T06:56:46.928Z,0
2017-11-29T06:57:48.555Z,0
2017-11-29T06:58:50.124Z,0
2017-11-29T06:59:51.733Z,0
2017-11-29T07:00:53.337Z,5
2017-11-29T07:01:54.941Z,5
2017-11-29T07:02:56.538Z,5
2017-11-29T07:03:58.146Z,5
2017-11-29T07:04:59.750Z,5
2017-11-29T07:06:01.354Z,5
2017-11-29T07:07:02.963Z,11
2017-11-29T07:08:04.565Z,11
2017-11-29T07:09:06.173Z,11
2017-11-29T07:10:07.777Z,11
2017-11-29T07:11:09.389Z,11
2017-11-29T07:12:10.999Z,16
2017-11-29T07:13:12.592Z,16
2017-11-29T07:14:14.192Z,16
2017-11-29T07:15:15.800Z,16
2017-11-29T07:16:17.402Z,22
2017-11-29T07:17:19.009Z,22
2017-11-29T07:18:20.612Z,22
2017-11-29T07:19:22.225Z,22
2017-11-29T07:20:23.826Z,22
2017-11-29T07:21:25.437Z,28
2017-11-29T07:22:27.031Z,28
2017-11-29T07:23:28.644Z,28
2017-11-29T07:24:30.247Z,28
2017-11-29T07:25:31.851Z,33
2017-11-29T07:26:33.456Z,33
2017-11-29T07:27:35.061Z,33
2017-11-29T07:28:36.666Z,33
2017-11-29T07:29:38.265Z,33
2017-11-29T07:30:39.877Z,39
2017-11-29T07:31:41.481Z,39
2017-11-29T07:32:43.091Z,39
2017-11-29T07:33:44.695Z,33
2017-11-29T07:34:46.302Z,39
2017-11-29T07:35:47.903Z,39
2017-11-29T07:36:49.522Z,45
2017-11-29T07:37:52.326Z,39
2017-11-29T07:38:53.813Z,39
2017-11-29T07:39:55.422Z,45
2017-11-29T07:40:57.025Z,45
2017-11-29T07:41:58.631Z,45
2017-11-29T07:43:00.232Z,45
2017-11-29T07:44:01.834Z,50
2017-11-29T07:45:03.453Z,50
2017-11-29T07:46:05.050Z,56
2017-11-29T07:47:06.793Z,56
2017-11-29T07:48:08.414Z,56
2017-11-29T07:49:10.018Z,61
2017-11-29T07:50:11.637Z,61
2017-11-29T07:51:13.229Z,67
2017-11-29T07:52:14.830Z,67
2017-11-29T07:53:16.441Z,67
2017-11-29T07:54:18.048Z,67
2017-11-29T07:55:19.649Z,73
2017-11-29T07:56:21.258Z,78
2017-11-29T07:57:22.866Z,78
2017-11-29T07:58:24.472Z,78
2017-11-29T07:59:26.073Z,84
2017-11-29T08:00:27.690Z,84
2017-11-29T08:01:29.295Z,90
2017-11-29T08:02:30.902Z,95
2017-11-29T08:03:32.502Z,95
2017-11-29T08:04:34.106Z,101
2017-11-29T08:05:35.717Z,106
2017-11-29T08:06:37.330Z,106
2017-11-29T08:07:38.938Z,101
2017-11-29T08:08:40.547Z,106
2017-11-29T08:09:42.157Z,112
2017-11-29T08:10:43.766Z,118
2017-11-29T08:11:45.375Z,123
2017-11-29T08:12:46.979Z,129
2017-11-29T08:13:48.588Z,135
2017-11-29T08:14:50.197Z,146
2017-11-29T08:15:51.810Z,151
2017-11-29T08:16:53.417Z,163
2017-11-29T08:17:55.023Z,174
2017-11-29T08:18:56.636Z,191
2017-11-29T08:19:58.238Z,202
2017-11-29T08:20:59.852Z,213
2017-11-29T08:22:01.458Z,213
2017-11-29T08:23:03.071Z,225
2017-11-29T08:24:04.686Z,230
2017-11-29T08:25:06.286Z,230
2017-11-29T08:26:07.890Z,236
2017-11-29T08:27:09.494Z,241
2017-11-29T08:28:11.110Z,247
2017-11-29T08:29:12.724Z,253
2017-11-29T08:30:14.336Z,264
2017-11-29T08:31:15.944Z,275
2017-11-29T08:32:17.548Z,281
2017-11-29T08:33:19.159Z,298
2017-11-29T08:34:20.767Z,315
2017-11-29T08:35:22.376Z,326
2017-11-29T08:36:24.014Z,331
2017-11-29T08:37:25.709Z,303
2017-11-29T08:38:27.317Z,309
2017-11-29T08:39:28.935Z,331
2017-11-29T08:40:30.531Z,326
2017-11-29T08:41:32.136Z,320
2017-11-29T08:42:33.750Z,331
2017-11-29T08:43:35.359Z,343
2017-11-29T08:44:36.965Z,365
2017-11-29T08:45:38.581Z,433
2017-11-29T08:46:40.178Z,466
2017-11-29T08:47:41.790Z,450
2017-11-29T08:48:43.399Z,455
2017-11-29T08:49:45.015Z,500
2017-11-29T08:50:46.624Z,568
2017-11-29T08:51:48.238Z,596
2017-11-29T08:52:49.843Z,596
2017-11-29T08:53:51.449Z,618
2017-11-29T08:54:53.067Z,601
2017-11-29T08:55:54.688Z,658
2017-11-29T08:56:56.278Z,607
2017-11-29T08:57:57.887Z,646
2017-11-29T08:58:59.499Z,652
2017-11-29T09:00:01.108Z,652
2017-11-29T09:01:02.730Z,652
2017-11-29T09:02:04.330Z,658
2017-11-29T09:03:05.960Z,675
2017-11-29T09:04:07.568Z,697
2017-11-29T09:05:09.184Z,708
2017-11-29T09:06:10.834Z,714
2017-11-29T09:07:12.411Z,714
2017-11-29T09:08:14.017Z,703
2017-11-29T09:09:15.628Z,691
2017-11-29T09:10:17.257Z,680
2017-11-29T09:11:18.875Z,658
2017-11-29T09:12:20.483Z,641
2017-11-29T09:13:22.101Z,663
2017-11-29T09:14:23.707Z,663
2017-11-29T09:15:25.319Z,669
2017-11-29T09:16:27.611Z,635
2017-11-29T09:17:29.247Z,630
2017-11-29T09:18:30.864Z,618
2017-11-29T09:19:32.473Z,613
2017-11-29T09:20:34.094Z,624
2017-11-29T09:21:35.695Z,652
2017-11-29T09:22:37.307Z,658
2017-11-29T09:23:38.914Z,618
2017-11-29T09:24:41.261Z,579
2017-11-29T09:25:42.876Z,500
2017-11-29T09:26:44.491Z,545
2017-11-29T09:27:46.098Z,562
2017-11-29T09:28:47.713Z,596
2017-11-29T09:29:49.320Z,607
2017-11-29T09:30:50.933Z,590
2017-11-29T09:31:52.541Z,579
2017-11-29T09:32:54.155Z,562
2017-11-29T09:33:55.779Z,562
2017-11-29T09:34:57.400Z,455
2017-11-29T09:35:58.997Z,545
2017-11-29T09:37:00.608Z,562
2017-11-29T09:38:02.236Z,568
2017-11-29T09:39:03.859Z,579
2017-11-29T09:40:05.462Z,585
2017-11-29T09:41:07.070Z,579
2017-11-29T09:42:08.685Z,601
2017-11-29T09:43:10.296Z,607
2017-11-29T09:44:11.903Z,613
2017-11-29T09:45:14.068Z,624
2017-11-29T09:46:15.683Z,663
2017-11-29T09:47:17.295Z,731
2017-11-29T09:48:18.902Z,883
2017-11-29T09:49:20.525Z,1001
2017-11-29T09:50:22.131Z,905
2017-11-29T09:51:23.753Z,556
2017-11-29T09:52:25.355Z,691
2017-11-29T09:53:26.970Z,545
2017-11-29T09:54:28.577Z,495
2017-11-29T09:55:30.195Z,478
2017-11-29T09:56:31.804Z,568
2017-11-29T09:57:33.418Z,641
2017-11-29T09:58:35.024Z,793
2017-11-29T09:59:36.639Z,483
2017-11-29T10:00:38.248Z,433
2017-11-29T10:01:39.862Z,500
2017-11-29T10:02:41.471Z,455
2017-11-29T10:03:43.090Z,472
2017-11-29T10:04:44.695Z,489
2017-11-29T10:05:46.309Z,534
2017-11-29T10:06:47.924Z,472
2017-11-29T10:07:49.537Z,506
2017-11-29T10:08:51.146Z,399
2017-11-29T10:09:52.757Z,663
2017-11-29T10:10:54.374Z,421
2017-11-29T10:11:55.987Z,534
2017-11-29T10:12:57.596Z,579
2017-11-29T10:13:59.200Z,540
2017-11-29T10:15:00.816Z,585
2017-11-29T10:16:02.425Z,658
2017-11-29T10:17:04.044Z,590
2017-11-29T10:18:05.648Z,545
2017-11-29T10:19:07.283Z,511
2017-11-29T10:20:08.867Z,523
2017-11-29T10:21:10.489Z,534
2017-11-29T10:22:12.095Z,585
2017-11-29T10:23:13.703Z,725
2017-11-29T10:24:15.314Z,703
2017-11-29T10:25:16.929Z,646
2017-11-29T10:26:18.543Z,556
2017-11-29T10:27:20.160Z,551
2017-11-29T10:28:21.767Z,585
2017-11-29T10:29:23.381Z,736
2017-11-29T10:30:24.995Z,804
2017-11-29T10:31:26.609Z,652
2017-11-29T10:32:28.221Z,703
2017-11-29T10:33:29.829Z,590
2017-11-29T10:34:31.442Z,691
2017-11-29T10:35:33.073Z,748
2017-11-29T10:36:34.681Z,753
2017-11-29T10:37:36.302Z,652
2017-11-29T10:38:37.920Z,517
2017-11-29T10:39:39.529Z,500
2017-11-29T10:40:41.145Z,573
2017-11-29T10:41:43.047Z,781
2017-11-29T10:42:44.635Z,990
2017-11-29T10:43:46.250Z,714
2017-11-29T10:44:47.863Z,703
2017-11-29T10:45:49.471Z,596
2017-11-29T10:46:51.083Z,596
2017-11-29T10:47:52.700Z,703
2017-11-29T10:48:54.313Z,748
2017-11-29T10:49:55.921Z,793
2017-11-29T10:50:57.531Z,815
2017-11-29T10:51:59.151Z,888
2017-11-29T10:53:00.768Z,1175
2017-11-29T10:54:02.376Z,1288
2017-11-29T10:55:03.993Z,1316
2017-11-29T10:56:05.612Z,1310
2017-11-29T10:57:07.222Z,1164
2017-11-29T10:58:08.845Z,1040
2017-11-29T10:59:10.458Z,1085
2017-11-29T11:00:12.078Z,1170
2017-11-29T11:01:13.689Z,1164
2017-11-29T11:02:16.085Z,1074
2017-11-29T11:03:17.703Z,939
2017-11-29T11:04:19.315Z,1023
2017-11-29T11:05:20.934Z,1040
2017-11-29T11:06:22.553Z,540
2017-11-29T11:07:24.172Z,888
2017-11-29T11:08:25.788Z,1068
2017-11-29T11:09:27.404Z,1102
2017-11-29T11:10:29.013Z,455
2017-11-29T11:11:30.625Z,545
2017-11-29T11:12:32.243Z,905
2017-11-29T11:13:33.862Z,568
2017-11-29T11:14:36.630Z,680
2017-11-29T11:15:38.258Z,691
2017-11-29T11:16:39.868Z,691
2017-11-29T11:17:41.481Z,703
2017-11-29T11:18:43.099Z,652
2017-11-29T11:19:44.724Z,646
2017-11-29T11:20:46.326Z,658
2017-11-29T11:21:47.938Z,562
2017-11-29T11:22:49.557Z,725
2017-11-29T11:23:51.163Z,585
2017-11-29T11:24:52.780Z,725
2017-11-29T11:25:54.388Z,810
2017-11-29T11:26:56.010Z,877
2017-11-29T11:27:57.626Z,860
2017-11-29T11:28:59.237Z,675
2017-11-29T11:30:00.854Z,748
2017-11-29T11:31:02.471Z,703
2017-11-29T11:32:04.076Z,635
2017-11-29T11:33:05.687Z,663
2017-11-29T11:34:07.297Z,714
2017-11-29T11:35:08.915Z,748
2017-11-29T11:36:10.533Z,748
2017-11-29T11:37:12.146Z,770
2017-11-29T11:38:13.755Z,826
2017-11-29T11:39:15.375Z,815
2017-11-29T11:40:16.992Z,680
2017-11-29T11:41:18.600Z,528
2017-11-29T11:42:20.216Z,540
2017-11-29T11:43:21.830Z,596
2017-11-29T11:44:23.441Z,652
2017-11-29T11:45:25.048Z,444
2017-11-29T11:46:26.667Z,556
2017-11-29T11:47:28.273Z,759
2017-11-29T11:48:29.883Z,810
2017-11-29T11:49:31.499Z,770
2017-11-29T11:50:33.114Z,748
2017-11-29T11:51:34.734Z,708
2017-11-29T11:52:36.349Z,686
2017-11-29T11:53:37.960Z,697
2017-11-29T11:54:39.570Z,686
2017-11-29T11:55:41.186Z,742
2017-11-29T11:56:42.800Z,770
2017-11-29T11:57:44.415Z,781
2017-11-29T11:58:46.028Z,781
2017-11-29T11:59:47.646Z,765
2017-11-29T12:00:49.250Z,759
2017-11-29T12:01:50.860Z,759
2017-11-29T12:02:52.531Z,714
2017-11-29T12:03:54.199Z,669
2017-11-29T12:04:55.824Z,646
2017-11-29T12:05:57.465Z,635
2017-11-29T12:06:59.066Z,613
2017-11-29T12:08:00.676Z,579
2017-11-29T12:09:02.291Z,540
2017-11-29T12:10:03.898Z,523
2017-11-29T12:11:05.516Z,511
2017-11-29T12:12:07.133Z,511
2017-11-29T12:13:08.743Z,534
2017-11-29T12:14:10.350Z,545
2017-11-29T12:15:11.966Z,579
2017-11-29T12:16:13.573Z,585
2017-11-29T12:17:15.185Z,545
2017-11-29T12:18:16.840Z,551
2017-11-29T12:19:18.446Z,540
2017-11-29T12:20:20.056Z,534
2017-11-29T12:21:21.664Z,523
2017-11-29T12:22:23.284Z,500
2017-11-29T12:23:24.895Z,523
2017-11-29T12:24:26.510Z,556
2017-11-29T12:25:28.120Z,579
2017-11-29T12:26:29.738Z,590
2017-11-29T12:27:31.349Z,590
2017-11-29T12:28:32.962Z,579
2017-11-29T12:29:34.568Z,562
2017-11-29T12:30:36.186Z,562
2017-11-29T12:31:37.795Z,545
2017-11-29T12:32:39.411Z,506
2017-11-29T12:33:41.026Z,478
2017-11-29T12:34:42.645Z,466
2017-11-29T12:35:44.249Z,455
2017-11-29T12:36:45.858Z,455
2017-11-29T12:37:47.475Z,450
2017-11-29T12:38:49.086Z,438
2017-11-29T12:39:50.731Z,433
2017-11-29T12:40:52.312Z,427
2017-11-29T12:41:53.931Z,421
2017-11-29T12:42:55.549Z,416
2017-11-29T12:43:57.148Z,410
2017-11-29T12:44:58.770Z,399
2017-11-29T12:46:00.378Z,393
2017-11-29T12:47:01.986Z,382
2017-11-29T12:48:03.603Z,303
2017-11-29T12:49:05.223Z,326
2017-11-29T12:50:06.828Z,337
2017-11-29T12:51:08.433Z,371
2017-11-29T12:52:10.043Z,270
2017-11-29T12:53:11.658Z,331
2017-11-29T12:54:13.264Z,393
2017-11-29T12:55:14.881Z,399
2017-11-29T12:56:16.504Z,399
2017-11-29T12:57:18.117Z,388
2017-11-29T12:58:19.724Z,393
2017-11-29T12:59:21.330Z,410
2017-11-29T13:00:22.940Z,421
2017-11-29T13:01:24.558Z,438
2017-11-29T13:02:26.170Z,444
2017-11-29T13:03:27.778Z,438
2017-11-29T13:04:29.388Z,433
2017-11-29T13:05:31.014Z,433
2017-11-29T13:06:32.626Z,444
2017-11-29T13:07:34.235Z,455
2017-11-29T13:08:35.850Z,455
2017-11-29T13:09:37.459Z,416
2017-11-29T13:10:39.075Z,399
2017-11-29T13:11:40.683Z,382
2017-11-29T13:12:42.306Z,376
2017-11-29T13:13:43.919Z,354
2017-11-29T13:14:45.533Z,343
2017-11-29T13:15:47.139Z,315
2017-11-29T13:16:48.755Z,236
2017-11-29T13:17:50.365Z,230
2017-11-29T13:18:51.980Z,264
2017-11-29T13:19:53.588Z,258
2017-11-29T13:20:55.199Z,309
2017-11-29T13:21:56.806Z,337
2017-11-29T13:22:58.418Z,343
2017-11-29T13:24:00.035Z,337
2017-11-29T13:25:01.685Z,303
2017-11-29T13:26:03.258Z,292
2017-11-29T13:27:04.865Z,275
2017-11-29T13:28:06.480Z,270
2017-11-29T13:29:08.093Z,281
2017-11-29T13:30:09.701Z,292
2017-11-29T13:31:11.318Z,303
2017-11-29T13:32:12.923Z,337
2017-11-29T13:33:14.537Z,365
2017-11-29T13:34:16.143Z,371
2017-11-29T13:35:17.757Z,326
2017-11-29T13:36:19.369Z,286
2017-11-29T13:37:20.977Z,286
2017-11-29T13:38:22.600Z,275
2017-11-29T13:39:24.202Z,236
2017-11-29T13:40:25.812Z,213
2017-11-29T13:41:27.427Z,208
2017-11-29T13:42:29.029Z,208
2017-11-29T13:43:30.642Z,208
2017-11-29T13:44:32.253Z,213
2017-11-29T13:45:33.876Z,208
2017-11-29T13:46:35.476Z,208
2017-11-29T13:47:37.082Z,208
2017-11-29T13:48:38.695Z,219
2017-11-29T13:49:40.301Z,219
2017-11-29T13:50:41.913Z,219
2017-11-29T13:51:43.523Z,225
2017-11-29T13:52:45.135Z,225
2017-11-29T13:53:46.746Z,225
2017-11-29T13:54:48.356Z,219
2017-11-29T13:55:49.961Z,225
2017-11-29T13:56:51.574Z,219
2017-11-29T13:57:53.178Z,157
2017-11-29T13:58:54.791Z,157
2017-11-29T13:59:56.399Z,157
2017-11-29T14:00:58.022Z,140
2017-11-29T14:01:59.628Z,135
2017-11-29T14:03:01.233Z,129
2017-11-29T14:04:02.839Z,129
2017-11-29T14:05:04.453Z,129
2017-11-29T14:06:06.060Z,123
2017-11-29T14:07:07.671Z,123
2017-11-29T14:08:09.280Z,123
2017-11-29T14:09:10.890Z,123
2017-11-29T14:10:12.512Z,118
2017-11-29T14:11:14.104Z,123
2017-11-29T14:12:15.716Z,135
2017-11-29T14:13:17.332Z,163
2017-11-29T14:14:18.945Z,168
2017-11-29T14:15:20.550Z,163
2017-11-29T14:16:22.154Z,163
2017-11-29T14:17:23.766Z,157
2017-11-29T14:18:25.378Z,157
2017-11-29T14:19:26.994Z,157
2017-11-29T14:20:28.597Z,151
2017-11-29T14:21:30.251Z,146
2017-11-29T14:22:31.814Z,146
2017-11-29T14:23:33.429Z,146
2017-11-29T14:24:35.034Z,146
2017-11-29T14:25:36.639Z,140
2017-11-29T14:26:38.248Z,140
2017-11-29T14:27:39.862Z,135
2017-11-29T14:28:41.467Z,129
2017-11-29T14:29:43.080Z,123
2017-11-29T14:30:44.690Z,118
2017-11-29T14:31:46.292Z,118
2017-11-29T14:32:47.898Z,118
2017-11-29T14:33:49.509Z,112
2017-11-29T14:34:51.119Z,106
2017-11-29T14:35:52.729Z,101
2017-11-29T14:36:54.338Z,101
2017-11-29T14:37:55.949Z,95
2017-11-29T14:38:57.559Z,95
2017-11-29T14:39:59.161Z,95
2017-11-29T14:41:00.773Z,90